Nykobing, Denmark
Current Conditions -  °F | °C
As of 6:20 AM on Saturday 29 Nov 2014 (Local Time) from EKRK Reporting Station
Overcast Overcast  
Wind Chill: 27°   Ceiling: 1600
Heat Index: 37°   Visibility: 6mi
Dew Point: 30°   Wind: 18mph
Humidity: 75%   Direction: 110°ESE
Pressure: 30.27"   Gusts: NA
Location:  55.94°N, 11.65°E
Report Text: EKRK 290520Z AUTO 11016KT 9999NDV BKN016/// OVC019///03/M01 Q1025
Loading
Personal Weather Stations






























Interactive Weather Map New forecast layout! Learn more

10-Day Weather Forecast

Advertisements
Track Severe Weather on mobile